sensor_id;sensor_type;location;lat;lon;timestamp;temperature;humidity
12843;DHT22;35724;49.324;-123.118;2022-11-20T00:07:52;22.30;42.00
12843;DHT22;35724;49.324;-123.118;2022-11-20T00:18:00;22.00;41.70
12843;DHT22;35724;49.324;-123.118;2022-11-20T00:28:07;22.00;40.90
12843;DHT22;35724;49.324;-123.118;2022-11-20T00:38:16;21.90;40.30
12843;DHT22;35724;49.324;-123.118;2022-11-20T00:48:26;21.90;40.20
12843;DHT22;35724;49.324;-123.118;2022-11-20T00:58:50;21.80;40.40
12843;DHT22;35724;49.324;-123.118;2022-11-20T01:09:30;21.60;39.70
12843;DHT22;35724;49.324;-123.118;2022-11-20T01:19:40;21.60;39.60
12843;DHT22;35724;49.324;-123.118;2022-11-20T01:29:47;21.50;39.40
12843;DHT22;35724;49.324;-123.118;2022-11-20T01:39:59;21.40;39.40
12843;DHT22;35724;49.324;-123.118;2022-11-20T01:50:11;21.40;39.10
12843;DHT22;35724;49.324;-123.118;2022-11-20T02:00:21;21.40;39.00
12843;DHT22;35724;49.324;-123.118;2022-11-20T02:10:29;21.30;38.60
12843;DHT22;35724;49.324;-123.118;2022-11-20T02:20:39;21.20;38.50
12843;DHT22;35724;49.324;-123.118;2022-11-20T02:30:48;21.20;38.20
12843;DHT22;35724;49.324;-123.118;2022-11-20T02:40:55;21.10;38.00
12843;DHT22;35724;49.324;-123.118;2022-11-20T02:51:13;21.00;37.90
12843;DHT22;35724;49.324;-123.118;2022-11-20T03:01:25;21.20;38.40
12843;DHT22;35724;49.324;-123.118;2022-11-20T03:11:54;21.60;40.00
12843;DHT22;35724;49.324;-123.118;2022-11-20T03:22:06;21.70;40.70
12843;DHT22;35724;49.324;-123.118;2022-11-20T03:32:18;22.20;41.70
12843;DHT22;35724;49.324;-123.118;2022-11-20T03:42:26;22.40;43.10
12843;DHT22;35724;49.324;-123.118;2022-11-20T03:52:51;22.60;44.20
12843;DHT22;35724;49.324;-123.118;2022-11-20T04:03:07;22.80;45.10
12843;DHT22;35724;49.324;-123.118;2022-11-20T04:13:20;22.80;45.60
12843;DHT22;35724;49.324;-123.118;2022-11-20T04:48:10;23.10;47.60
12843;DHT22;35724;49.324;-123.118;2022-11-20T05:22:15;23.50;54.50
12843;DHT22;35724;49.324;-123.118;2022-11-20T05:32:27;23.60;54.70
12843;DHT22;35724;49.324;-123.118;2022-11-20T05:42:36;23.60;55.00
12843;DHT22;35724;49.324;-123.118;2022-11-20T05:52:43;23.60;54.00
12843;DHT22;35724;49.324;-123.118;2022-11-20T06:02:52;23.60;52.50
12843;DHT22;35724;49.324;-123.118;2022-11-20T06:12:59;23.60;51.70
12843;DHT22;35724;49.324;-123.118;2022-11-20T06:23:08;23.60;50.90
12843;DHT22;35724;49.324;-123.118;2022-11-20T06:33:15;23.60;50.40
12843;DHT22;35724;49.324;-123.118;2022-11-20T06:43:30;23.60;49.80
12843;DHT22;35724;49.324;-123.118;2022-11-20T06:53:38;23.70;49.30
12843;DHT22;35724;49.324;-123.118;2022-11-20T07:03:49;23.60;49.00
12843;DHT22;35724;49.324;-123.118;2022-11-20T07:13:58;23.60;48.70
12843;DHT22;35724;49.324;-123.118;2022-11-20T07:24:07;23.70;48.50
12843;DHT22;35724;49.324;-123.118;2022-11-20T07:34:15;23.60;48.50
12843;DHT22;35724;49.324;-123.118;2022-11-20T07:44:23;23.70;48.30
12843;DHT22;35724;49.324;-123.118;2022-11-20T07:54:31;23.70;48.30
12843;DHT22;35724;49.324;-123.118;2022-11-20T08:04:39;23.60;48.40
12843;DHT22;35724;49.324;-123.118;2022-11-20T08:14:46;23.50;47.20
12843;DHT22;35724;49.324;-123.118;2022-11-20T08:24:55;23.40;45.90
12843;DHT22;35724;49.324;-123.118;2022-11-20T08:35:03;23.30;44.50
12843;DHT22;35724;49.324;-123.118;2022-11-20T08:45:11;23.30;43.30
12843;DHT22;35724;49.324;-123.118;2022-11-20T08:55:18;23.20;42.50
12843;DHT22;35724;49.324;-123.118;2022-11-20T09:05:28;23.10;42.10
12843;DHT22;35724;49.324;-123.118;2022-11-20T09:15:35;23.10;41.60
12843;DHT22;35724;49.324;-123.118;2022-11-20T09:25:45;23.10;41.10
12843;DHT22;35724;49.324;-123.118;2022-11-20T09:35:52;23.10;40.80
12843;DHT22;35724;49.324;-123.118;2022-11-20T09:46:07;23.10;40.80
12843;DHT22;35724;49.324;-123.118;2022-11-20T09:56:17;23.10;40.30
12843;DHT22;35724;49.324;-123.118;2022-11-20T10:06:29;23.00;40.00
12843;DHT22;35724;49.324;-123.118;2022-11-20T10:16:42;23.00;39.80
12843;DHT22;35724;49.324;-123.118;2022-11-20T10:27:00;23.00;39.30
12843;DHT22;35724;49.324;-123.118;2022-11-20T10:37:13;23.00;39.30
12843;DHT22;35724;49.324;-123.118;2022-11-20T10:47:24;23.00;39.20
12843;DHT22;35724;49.324;-123.118;2022-11-20T10:57:48;23.00;39.00
12843;DHT22;35724;49.324;-123.118;2022-11-20T11:07:59;23.00;38.80
12843;DHT22;35724;49.324;-123.118;2022-11-20T11:18:09;23.00;38.60
12843;DHT22;35724;49.324;-123.118;2022-11-20T11:28:23;23.00;38.40
12843;DHT22;35724;49.324;-123.118;2022-11-20T11:38:35;22.90;38.30
12843;DHT22;35724;49.324;-123.118;2022-11-20T11:48:55;23.00;38.00
12843;DHT22;35724;49.324;-123.118;2022-11-20T11:59:06;22.90;37.70
12843;DHT22;35724;49.324;-123.118;2022-11-20T12:09:19;22.90;37.50
12843;DHT22;35724;49.324;-123.118;2022-11-20T12:19:33;22.90;37.30
12843;DHT22;35724;49.324;-123.118;2022-11-20T12:29:47;22.90;37.20
12843;DHT22;35724;49.324;-123.118;2022-11-20T12:40:02;22.90;37.20
12843;DHT22;35724;49.324;-123.118;2022-11-20T12:50:27;22.90;37.00
12843;DHT22;35724;49.324;-123.118;2022-11-20T13:00:40;22.90;36.90
12843;DHT22;35724;49.324;-123.118;2022-11-20T13:10:55;22.90;36.70
12843;DHT22;35724;49.324;-123.118;2022-11-20T13:21:16;22.90;36.50
12843;DHT22;35724;49.324;-123.118;2022-11-20T13:31:33;22.90;36.60
12843;DHT22;35724;49.324;-123.118;2022-11-20T13:41:41;22.90;36.20
12843;DHT22;35724;49.324;-123.118;2022-11-20T13:51:51;22.80;36.40
12843;DHT22;35724;49.324;-123.118;2022-11-20T14:01:58;22.90;36.20
12843;DHT22;35724;49.324;-123.118;2022-11-20T14:12:16;22.90;35.80
12843;DHT22;35724;49.324;-123.118;2022-11-20T14:22:25;22.90;35.80
12843;DHT22;35724;49.324;-123.118;2022-11-20T14:32:35;22.90;35.50
12843;DHT22;35724;49.324;-123.118;2022-11-20T14:42:44;22.80;35.70
12843;DHT22;35724;49.324;-123.118;2022-11-20T14:52:54;22.90;35.60
12843;DHT22;35724;49.324;-123.118;2022-11-20T15:03:01;22.90;35.40
12843;DHT22;35724;49.324;-123.118;2022-11-20T15:13:14;22.80;35.40
12843;DHT22;35724;49.324;-123.118;2022-11-20T15:23:23;22.90;35.40
12843;DHT22;35724;49.324;-123.118;2022-11-20T15:33:32;22.80;35.40
12843;DHT22;35724;49.324;-123.118;2022-11-20T15:43:39;22.90;35.40
12843;DHT22;35724;49.324;-123.118;2022-11-20T15:53:51;22.90;35.30
12843;DHT22;35724;49.324;-123.118;2022-11-20T16:04:01;22.80;35.40
12843;DHT22;35724;49.324;-123.118;2022-11-20T16:14:11;22.90;35.30
12843;DHT22;35724;49.324;-123.118;2022-11-20T16:24:35;23.00;35.40
12843;DHT22;35724;49.324;-123.118;2022-11-20T16:34:44;23.00;35.60
12843;DHT22;35724;49.324;-123.118;2022-11-20T16:44:51;23.00;35.60
12843;DHT22;35724;49.324;-123.118;2022-11-20T16:55:00;23.10;35.50
12843;DHT22;35724;49.324;-123.118;2022-11-20T17:05:07;23.10;35.70
12843;DHT22;35724;49.324;-123.118;2022-11-20T17:15:16;23.20;35.70
12843;DHT22;35724;49.324;-123.118;2022-11-20T17:25:24;23.40;37.20
12843;DHT22;35724;49.324;-123.118;2022-11-20T17:35:45;23.50;37.50
12843;DHT22;35724;49.324;-123.118;2022-11-20T17:46:18;23.50;37.90
12843;DHT22;35724;49.324;-123.118;2022-11-20T17:56:30;23.50;38.40
12843;DHT22;35724;49.324;-123.118;2022-11-20T18:06:57;23.50;38.30
12843;DHT22;35724;49.324;-123.118;2022-11-20T18:17:08;23.60;38.10
12843;DHT22;35724;49.324;-123.118;2022-11-20T18:27:22;23.60;38.90
12843;DHT22;35724;49.324;-123.118;2022-11-20T18:38:25;23.60;38.10
12843;DHT22;35724;49.324;-123.118;2022-11-20T19:00:09;23.90;39.20
12843;DHT22;35724;49.324;-123.118;2022-11-20T19:22:39;23.90;40.40
12843;DHT22;35724;49.324;-123.118;2022-11-20T19:45:21;24.10;42.00
12843;DHT22;35724;49.324;-123.118;2022-11-20T19:55:41;23.40;38.90
12843;DHT22;35724;49.324;-123.118;2022-11-20T20:05:51;23.40;39.70
12843;DHT22;35724;49.324;-123.118;2022-11-20T20:15:58;23.50;40.00
12843;DHT22;35724;49.324;-123.118;2022-11-20T20:50:09;23.60;39.60
12843;DHT22;35724;49.324;-123.118;2022-11-20T21:00:39;21.80;38.20
12843;DHT22;35724;49.324;-123.118;2022-11-20T21:11:09;21.90;40.20
12843;DHT22;35724;49.324;-123.118;2022-11-20T21:21:24;22.40;44.80
12843;DHT22;35724;49.324;-123.118;2022-11-20T22:53:01;19.10;41.30
12843;DHT22;35724;49.324;-123.118;2022-11-20T23:03:57;20.60;44.90
12843;DHT22;35724;49.324;-123.118;2022-11-20T23:14:49;21.60;45.70
12843;DHT22;35724;49.324;-123.118;2022-11-20T23:25:05;21.90;46.50
